createdAt,value
2018-07-17T00:00:00.953Z,20.59
2018-07-17T00:00:46.318Z,20.64
2018-07-17T00:01:46.343Z,20.62
2018-07-17T00:02:46.390Z,20.73
2018-07-17T00:04:46.421Z,20.69
2018-07-17T00:05:46.441Z,20.72
2018-07-17T00:06:46.465Z,20.7
2018-07-17T00:07:46.489Z,20.64
2018-07-17T00:08:46.256Z,20.72
2018-07-17T00:09:46.905Z,20.69
2018-07-17T00:10:46.566Z,20.73
2018-07-17T00:11:46.597Z,20.72
2018-07-17T00:12:46.812Z,20.7
2018-07-17T00:14:01.303Z,20.72
2018-07-17T00:14:46.664Z,20.72
2018-07-17T00:15:46.688Z,20.67
2018-07-17T00:17:01.374Z,20.7
2018-07-17T00:17:46.745Z,20.64
2018-07-17T00:18:46.773Z,20.61
2018-07-17T00:19:46.786Z,20.67
2018-07-17T00:20:46.553Z,20.61
2018-07-17T00:22:46.601Z,20.67
2018-07-17T00:24:01.549Z,20.59
2018-07-17T00:24:46.909Z,20.7
2018-07-17T00:25:46.937Z,20.69
2018-07-17T00:26:46.700Z,20.62
2018-07-17T00:27:46.987Z,20.61
2018-07-17T00:28:47.010Z,20.61
2018-07-17T00:29:47.040Z,20.62
2018-07-17T00:31:47.083Z,20.58
2018-07-17T00:32:46.851Z,20.57
2018-07-17T00:33:47.139Z,20.59
2018-07-17T00:34:47.156Z,20.64
2018-07-17T00:35:46.928Z,20.57
2018-07-17T00:36:46.951Z,20.61
2018-07-17T00:37:46.972Z,20.58
2018-07-17T00:38:46.997Z,20.59
2018-07-17T00:40:01.944Z,20.5
2018-07-17T00:40:47.306Z,20.58
2018-07-17T00:41:47.339Z,20.55
2018-07-17T00:42:47.100Z,20.51
2018-07-17T00:43:47.397Z,20.48
2018-07-17T00:44:47.149Z,20.54
2018-07-17T00:45:47.431Z,20.51
2018-07-17T00:46:47.458Z,20.57
2018-07-17T00:48:47.255Z,20.47
2018-07-17T00:49:47.276Z,20.41
2018-07-17T00:50:47.556Z,20.36
2018-07-17T00:51:47.580Z,20.38
2018-07-17T00:52:47.600Z,20.39
2018-07-17T00:53:47.627Z,20.39
2018-07-17T00:54:47.653Z,20.39
2018-07-17T00:56:02.345Z,20.38
2018-07-17T00:56:47.708Z,20.5
2018-07-17T00:57:47.727Z,20.48
2018-07-17T00:58:47.495Z,20.35
2018-07-17T00:59:47.776Z,20.47
2018-07-17T01:00:47.544Z,20.47
2018-07-17T01:01:47.823Z,20.41
2018-07-17T01:02:47.878Z,20.41
2018-07-17T01:04:02.538Z,20.36
2018-07-17T01:04:47.905Z,20.33
2018-07-17T01:05:47.674Z,20.33
2018-07-17T01:06:47.946Z,20.32
2018-07-17T01:07:47.719Z,20.31
2018-07-17T01:09:48.026Z,20.21
2018-07-17T01:10:48.048Z,20.24
2018-07-17T01:12:02.735Z,20.21
2018-07-17T01:12:48.097Z,20.23
2018-07-17T01:13:48.126Z,20.23
2018-07-17T01:14:48.149Z,20.2
2018-07-17T01:15:48.173Z,20.23
2018-07-17T01:16:47.682Z,20.1
2018-07-17T01:17:47.962Z,20.13
2018-07-17T01:18:48.250Z,20.14
2018-07-17T01:19:48.270Z,20.16
2018-07-17T01:20:48.295Z,20.16
2018-07-17T01:21:48.317Z,20.08
2018-07-17T01:23:03.002Z,20.06
2018-07-17T01:23:48.366Z,20.13
2018-07-17T01:24:48.392Z,20.11
2018-07-17T01:27:03.106Z,20.02
2018-07-17T01:29:48.515Z,20.06
2018-07-17T01:30:48.541Z,20.02
2018-07-17T01:32:03.231Z,20.01
2018-07-17T01:32:48.590Z,20.06
2018-07-17T01:33:48.614Z,19.99
2018-07-17T01:34:48.638Z,20.01
2018-07-17T01:35:48.677Z,20.03
2018-07-17T01:37:03.350Z,20.05
2018-07-17T01:37:48.716Z,20.02
2018-07-17T01:38:48.480Z,19.99
2018-07-17T01:39:48.508Z,20.03
2018-07-17T01:40:48.530Z,20.01
2018-07-17T01:41:48.556Z,20.01
2018-07-17T01:42:48.846Z,19.99
2018-07-17T01:43:48.861Z,19.99
2018-07-17T01:44:48.890Z,19.99
2018-07-17T01:46:48.975Z,19.96
2018-07-17T01:47:48.957Z,19.81
2018-07-17T01:48:48.982Z,19.84
2018-07-17T01:49:49.014Z,19.87
2018-07-17T01:50:49.035Z,19.91
2018-07-17T01:51:48.799Z,19.92
2018-07-17T01:52:48.828Z,19.8
2018-07-17T01:53:49.107Z,19.88
2018-07-17T01:54:49.181Z,19.86
2018-07-17T01:55:49.154Z,19.92
2018-07-17T01:56:49.178Z,19.83
2018-07-17T01:57:49.203Z,19.81
2018-07-17T01:59:03.891Z,19.76
2018-07-17T01:59:48.994Z,19.81
2018-07-17T02:00:49.280Z,19.86
2018-07-17T02:01:49.304Z,19.81
2018-07-17T02:02:49.325Z,19.87
2018-07-17T02:04:04.016Z,19.77
2018-07-17T02:04:49.436Z,19.84
2018-07-17T02:05:49.144Z,19.78
2018-07-17T02:06:49.428Z,19.83
2018-07-17T02:08:04.111Z,19.73
2018-07-17T02:08:49.479Z,19.73
2018-07-17T02:09:49.507Z,19.76
2018-07-17T02:10:49.526Z,19.78
2018-07-17T02:11:49.289Z,19.78
2018-07-17T02:12:49.321Z,19.77
2018-07-17T02:13:49.082Z,19.83
2018-07-17T02:15:04.291Z,19.78
2018-07-17T02:15:49.643Z,19.76
2018-07-17T02:16:49.414Z,19.77
2018-07-17T02:17:49.700Z,19.74
2018-07-17T02:19:49.482Z,19.83
2018-07-17T02:21:04.432Z,19.74
2018-07-17T02:21:49.853Z,19.76
2018-07-17T02:22:49.819Z,19.76
2018-07-17T02:23:49.843Z,19.77
2018-07-17T02:24:49.864Z,19.77
2018-07-17T02:25:49.636Z,19.71
2018-07-17T02:26:49.915Z,19.78
2018-07-17T02:27:49.937Z,19.83
2018-07-17T02:28:49.965Z,19.81
2018-07-17T02:29:50.000Z,19.87
2018-07-17T02:31:04.416Z,19.78
2018-07-17T02:31:49.523Z,19.81
2018-07-17T02:32:50.066Z,19.83
2018-07-17T02:33:50.091Z,19.86
2018-07-17T02:35:04.777Z,19.76
2018-07-17T02:35:50.133Z,19.8
2018-07-17T02:36:50.159Z,19.8
2018-07-17T02:37:50.192Z,19.76
2018-07-17T02:38:50.310Z,19.74
2018-07-17T02:40:04.893Z,19.76
2018-07-17T02:40:50.260Z,19.8
2018-07-17T02:41:50.285Z,19.77
2018-07-17T02:42:50.311Z,19.73
2018-07-17T02:43:50.337Z,19.81
2018-07-17T02:44:50.403Z,19.81
2018-07-17T02:45:50.382Z,19.77
2018-07-17T02:47:05.067Z,19.83
2018-07-17T02:47:50.428Z,19.76
2018-07-17T02:48:50.455Z,19.76
2018-07-17T02:49:50.482Z,19.77
2018-07-17T02:51:50.529Z,19.78
2018-07-17T02:52:50.551Z,19.76
2018-07-17T02:53:50.580Z,19.71
2018-07-17T02:54:50.607Z,19.73
2018-07-17T02:55:50.629Z,19.74
2018-07-17T02:56:50.654Z,19.68
2018-07-17T02:57:50.519Z,19.68
2018-07-17T02:58:50.457Z,19.76
2018-07-17T02:59:50.466Z,19.77
2018-07-17T03:00:50.755Z,19.76
2018-07-17T03:02:05.441Z,19.69
2018-07-17T03:02:50.799Z,19.61
2018-07-17T03:03:50.561Z,19.59
2018-07-17T03:04:50.849Z,19.69
2018-07-17T03:05:50.621Z,19.68
2018-07-17T03:08:05.584Z,19.76
2018-07-17T03:10:05.630Z,19.59
2018-07-17T03:10:50.989Z,19.54
2018-07-17T03:11:50.505Z,19.76
2018-07-17T03:12:51.043Z,19.59
2018-07-17T03:13:51.069Z,19.58
2018-07-17T03:14:50.834Z,19.59
2018-07-17T03:15:50.599Z,19.63
2018-07-17T03:17:51.170Z,19.73
2018-07-17T03:18:51.228Z,19.62
2018-07-17T03:19:50.955Z,19.76
2018-07-17T03:20:51.246Z,19.59
2018-07-17T03:21:51.261Z,19.65
2018-07-17T03:22:51.289Z,19.73
2018-07-17T03:23:51.322Z,19.71
2018-07-17T03:24:51.082Z,19.8
2018-07-17T03:25:51.101Z,19.74
2018-07-17T03:26:51.384Z,19.8
2018-07-17T03:27:51.411Z,19.92
2018-07-17T03:28:51.430Z,19.8
2018-07-17T03:29:51.454Z,19.83
2018-07-17T03:30:51.225Z,19.78
2018-07-17T03:31:51.518Z,19.8
2018-07-17T03:32:51.529Z,19.88
2018-07-17T03:34:06.210Z,19.95
2018-07-17T03:34:51.061Z,19.87
2018-07-17T03:36:51.627Z,19.96
2018-07-17T03:37:51.393Z,19.95
2018-07-17T03:38:51.674Z,19.99
2018-07-17T03:39:51.698Z,20.06
2018-07-17T03:40:51.723Z,20.03
2018-07-17T03:41:51.749Z,20.01
2018-07-17T03:42:51.770Z,20.03
2018-07-17T03:44:06.457Z,19.98
2018-07-17T03:44:51.564Z,20.03
2018-07-17T03:45:51.847Z,20.1
2018-07-17T03:46:51.870Z,20.03
2018-07-17T03:48:51.924Z,20.1
2018-07-17T03:50:06.604Z,20.1
2018-07-17T03:50:51.973Z,20.13
2018-07-17T03:51:51.993Z,20.11
2018-07-17T03:52:52.018Z,20.11
2018-07-17T03:53:52.047Z,20.23
2018-07-17T03:55:06.729Z,20.17
2018-07-17T03:55:52.088Z,20.2
2018-07-17T03:56:51.864Z,20.23
2018-07-17T03:57:52.137Z,20.23
2018-07-17T03:58:52.162Z,20.21
2018-07-17T04:00:06.590Z,20.2
2018-07-17T04:00:52.209Z,20.28
2018-07-17T04:01:52.239Z,20.32
2018-07-17T04:02:52.419Z,20.26
2018-07-17T04:03:52.293Z,20.35
2018-07-17T04:04:52.310Z,20.38
2018-07-17T04:06:06.993Z,20.47
2018-07-17T04:06:52.360Z,20.39
2018-07-17T04:07:52.398Z,20.39
2018-07-17T04:08:52.620Z,20.5
2018-07-17T04:09:52.432Z,20.51
2018-07-17T04:10:52.454Z,20.52
2018-07-17T04:11:52.224Z,20.55
2018-07-17T04:12:52.249Z,20.62
2018-07-17T04:14:07.191Z,20.62
2018-07-17T04:14:52.605Z,20.54
2018-07-17T04:15:52.339Z,20.59
2018-07-17T04:16:52.351Z,20.61
2018-07-17T04:17:52.627Z,20.61
2018-07-17T04:18:52.653Z,20.67
2018-07-17T04:19:52.676Z,20.76
2018-07-17T04:20:52.698Z,20.7
2018-07-17T04:22:07.129Z,20.69
2018-07-17T04:22:52.749Z,20.84
2018-07-17T04:23:52.774Z,20.87
2018-07-17T04:24:52.804Z,20.85
2018-07-17T04:25:52.820Z,20.89
2018-07-17T04:26:52.853Z,20.84
2018-07-17T04:27:52.613Z,20.89
2018-07-17T04:28:52.897Z,20.92
2018-07-17T04:29:53.127Z,20.92
2018-07-17T04:30:52.688Z,20.94
2018-07-17T04:31:53.266Z,20.89
2018-07-17T04:32:52.752Z,20.88
2018-07-17T04:33:52.762Z,20.94
2018-07-17T04:34:53.042Z,21.04
2018-07-17T04:35:53.072Z,21.01
2018-07-17T04:37:07.757Z,21.07
2018-07-17T04:37:53.123Z,21.21
2018-07-17T04:38:53.142Z,21.34
2018-07-17T04:39:53.167Z,21.44
2018-07-17T04:40:53.196Z,21.61
2018-07-17T04:41:53.219Z,21.72
2018-07-17T04:42:53.245Z,21.86
2018-07-17T04:43:53.011Z,22.07
2018-07-17T04:44:53.041Z,22.09
2018-07-17T04:45:53.314Z,22.09
2018-07-17T04:46:53.085Z,22.24
2018-07-17T04:47:53.366Z,22.25
2018-07-17T04:48:53.392Z,22.54
2018-07-17T04:49:53.417Z,22.61
2018-07-17T04:50:53.441Z,22.72
2018-07-17T04:51:53.207Z,22.72
2018-07-17T04:52:53.498Z,22.72
2018-07-17T04:53:53.696Z,22.58
2018-07-17T04:54:53.038Z,22.49
2018-07-17T04:55:53.568Z,22.52
2018-07-17T04:56:53.595Z,22.51
2018-07-17T04:57:53.617Z,22.42
2018-07-17T04:59:53.670Z,22.47
2018-07-17T05:00:53.436Z,22.46
2018-07-17T05:01:53.910Z,22.46
2018-07-17T05:02:53.748Z,22.54
2018-07-17T05:03:53.770Z,22.47
2018-07-17T05:04:53.803Z,22.4
2018-07-17T05:05:53.561Z,22.4
2018-07-17T05:06:53.330Z,22.35
2018-07-17T05:07:53.616Z,22.43
2018-07-17T05:09:08.300Z,22.51
2018-07-17T05:10:53.947Z,22.52
2018-07-17T05:11:53.971Z,22.54
2018-07-17T05:12:54.172Z,22.47
2018-07-17T05:13:54.028Z,22.54
2018-07-17T05:14:54.045Z,22.49
2018-07-17T05:15:53.813Z,22.58
2018-07-17T05:16:53.839Z,22.64
2018-07-17T05:17:54.122Z,22.57
2018-07-17T05:18:53.942Z,22.46
2018-07-17T05:19:54.171Z,22.39
2018-07-17T05:20:54.211Z,22.25
2018-07-17T05:21:54.229Z,22.31
2018-07-17T05:22:54.466Z,22.36
2018-07-17T05:23:54.275Z,22.33
2018-07-17T05:25:08.965Z,22.28
2018-07-17T05:25:54.327Z,22.27
2018-07-17T05:26:54.364Z,22.45
2018-07-17T05:27:54.377Z,22.6
2018-07-17T05:28:54.526Z,22.57
2018-07-17T05:29:54.168Z,22.55
2018-07-17T05:30:54.197Z,22.51
2018-07-17T05:31:54.476Z,22.67
2018-07-17T05:32:54.505Z,22.68
2018-07-17T05:33:54.524Z,22.72
2018-07-17T05:34:54.557Z,22.91
2018-07-17T05:35:54.590Z,23.04
2018-07-17T05:36:54.606Z,23.16
2018-07-17T05:37:54.654Z,23.31
2018-07-17T05:38:54.652Z,23.61
2018-07-17T05:39:54.681Z,23.66
2018-07-17T05:41:09.367Z,23.8
2018-07-17T05:41:54.532Z,24.22
2018-07-17T05:42:54.859Z,24.34
2018-07-17T05:43:54.788Z,24.46
2018-07-17T05:44:54.809Z,24.62
2018-07-17T05:45:54.837Z,24.78
2018-07-17T05:46:54.611Z,24.83
2018-07-17T05:47:54.889Z,25.08
2018-07-17T05:48:54.916Z,25.25
2018-07-17T05:49:54.946Z,25.2
2018-07-17T05:50:54.977Z,25.23
2018-07-17T05:52:09.399Z,25.09
2018-07-17T05:52:55.021Z,24.77
2018-07-17T05:53:55.047Z,24.88
2018-07-17T05:54:55.073Z,24.76
2018-07-17T05:55:55.100Z,25.08
2018-07-17T05:57:09.792Z,25.32
2018-07-17T05:57:55.154Z,25.33
2018-07-17T05:58:54.924Z,25.06
2018-07-17T05:59:54.951Z,25
2018-07-17T06:01:55.270Z,25.47
2018-07-17T06:02:55.035Z,25.65
2018-07-17T06:03:55.060Z,25.76
2018-07-17T06:04:55.086Z,25.76
2018-07-17T06:05:55.372Z,26.06
2018-07-17T06:07:10.065Z,25.85
2018-07-17T06:07:55.169Z,25.92
2018-07-17T06:08:55.457Z,25.98
2018-07-17T06:09:55.484Z,26.06
2018-07-17T06:10:54.996Z,26.21
2018-07-17T06:12:10.201Z,26.32
2018-07-17T06:13:55.598Z,26.43
2018-07-17T06:14:55.363Z,26.32
2018-07-17T06:16:10.330Z,26.07
2018-07-17T06:16:55.679Z,26.39
2018-07-17T06:17:55.710Z,26.26
2018-07-17T06:18:55.864Z,26.32
2018-07-17T06:19:55.529Z,26.45
2018-07-17T06:21:10.461Z,26.73
2018-07-17T06:21:55.819Z,26.84
2018-07-17T06:22:55.856Z,26.91
2018-07-17T06:23:55.894Z,26.81
2018-07-17T06:24:55.942Z,26.95
2018-07-17T06:25:55.939Z,27.55
2018-07-17T06:26:55.961Z,28
2018-07-17T06:27:56.009Z,28.36
2018-07-17T06:28:56.017Z,28.77
2018-07-17T06:29:56.050Z,28.92
2018-07-17T06:30:56.092Z,28.68
2018-07-17T06:31:56.113Z,28.56
2018-07-17T06:32:56.288Z,28.7
2018-07-17T06:33:56.165Z,28.49
2018-07-17T06:34:55.940Z,27.94
2018-07-17T06:35:55.972Z,27.82
2018-07-17T06:36:56.258Z,27.99
2018-07-17T06:37:56.292Z,28.43
2018-07-17T06:38:56.538Z,28.73
2018-07-17T06:39:56.355Z,28.73
2018-07-17T06:41:56.152Z,28.85
2018-07-17T06:42:56.184Z,28.77
2018-07-17T06:44:11.131Z,29.15
2018-07-17T06:45:56.531Z,28.95
2018-07-17T06:46:56.564Z,29.3
2018-07-17T06:47:56.591Z,29.55
2018-07-17T06:48:56.628Z,29.52
2018-07-17T06:49:56.653Z,29.3
2018-07-17T06:50:57.002Z,29.64
2018-07-17T06:51:56.721Z,30.27
2018-07-17T06:52:56.750Z,30.89
2018-07-17T06:53:56.782Z,31.01
2018-07-17T06:54:56.556Z,30.49
2018-07-17T06:55:56.587Z,30.34
2018-07-17T06:56:56.927Z,30.32
2018-07-17T06:57:56.906Z,30.31
2018-07-17T06:58:56.945Z,30.01
2018-07-17T07:00:11.637Z,29.51
2018-07-17T07:00:56.748Z,29.68
2018-07-17T07:01:57.038Z,29.71
2018-07-17T07:02:57.075Z,29.63
2018-07-17T07:03:56.838Z,28.95
2018-07-17T07:04:57.128Z,28.55
2018-07-17T07:05:57.157Z,28.64
2018-07-17T07:06:56.931Z,28.78
2018-07-17T07:08:11.885Z,28.85
2018-07-17T07:08:57.249Z,28.98
2018-07-17T07:09:57.285Z,29.05
2018-07-17T07:11:12.047Z,28.74
2018-07-17T07:11:57.091Z,28.58
2018-07-17T07:12:57.386Z,28.48
2018-07-17T07:13:57.411Z,28.83
2018-07-17T07:14:57.435Z,29.33
2018-07-17T07:16:57.498Z,28.96
2018-07-17T07:17:57.274Z,29.46
2018-07-17T07:18:57.563Z,29.65
2018-07-17T07:19:57.335Z,29.67
2018-07-17T07:20:57.630Z,29.48
2018-07-17T07:21:57.703Z,29.28
2018-07-17T07:22:57.688Z,29.18
2018-07-17T07:23:57.478Z,29.19
2018-07-17T07:24:57.747Z,29.53
2018-07-17T07:26:12.185Z,29.98
2018-07-17T07:26:57.558Z,30.1
2018-07-17T07:27:57.841Z,29.95
2018-07-17T07:28:57.875Z,29.85
2018-07-17T07:29:58.010Z,29.97
2018-07-17T07:30:58.074Z,29.82
2018-07-17T07:32:57.741Z,30.46
2018-07-17T07:33:58.038Z,30.42
2018-07-17T07:34:58.058Z,30.51
2018-07-17T07:35:58.095Z,30.8
2018-07-17T07:36:58.125Z,30.76
2018-07-17T07:38:12.822Z,30.57
2018-07-17T07:38:57.946Z,30.34
2018-07-17T07:39:58.221Z,30.34
2018-07-17T07:41:12.913Z,30.65
2018-07-17T07:42:12.688Z,30.62
2018-07-17T07:42:58.592Z,30.53
2018-07-17T07:43:58.356Z,30.88
2018-07-17T07:44:58.121Z,31.13
2018-07-17T07:47:12.850Z,30.92
2018-07-17T07:47:58.219Z,30.58
2018-07-17T07:48:58.249Z,30.8
2018-07-17T07:49:58.284Z,30.89
2018-07-17T07:50:58.318Z,30.91
2018-07-17T07:51:58.351Z,30.94
2018-07-17T07:52:58.641Z,30.8
2018-07-17T07:53:58.416Z,30.77
2018-07-17T07:54:58.446Z,30.79
2018-07-17T07:55:58.736Z,30.39
2018-07-17T07:56:58.767Z,30.61
2018-07-17T07:57:58.538Z,30.72
2018-07-17T07:58:58.897Z,30.55
2018-07-17T07:59:58.610Z,30.49
2018-07-17T08:00:58.657Z,30.42
2018-07-17T08:01:58.954Z,29.82
2018-07-17T08:02:59.070Z,29.89
2018-07-17T08:03:59.237Z,29.49
2018-07-17T08:04:59.034Z,29.55
2018-07-17T08:05:59.068Z,29.61
2018-07-17T08:06:59.100Z,29.76
2018-07-17T08:07:59.133Z,28.95
2018-07-17T08:08:58.897Z,28.68
2018-07-17T08:09:59.186Z,28.71
2018-07-17T08:10:59.223Z,28.76
2018-07-17T08:12:59.280Z,28.68
2018-07-17T08:13:59.053Z,28.56
2018-07-17T08:14:59.084Z,28.76
2018-07-17T08:15:59.378Z,28.64
2018-07-17T08:16:59.452Z,28.29
2018-07-17T08:17:59.435Z,28.54
2018-07-17T08:19:14.129Z,28.62
2018-07-17T08:19:59.494Z,28.66
2018-07-17T08:20:59.529Z,29.02
2018-07-17T08:21:59.559Z,29.28
2018-07-17T08:22:59.586Z,29.67
2018-07-17T08:23:59.622Z,30.23
2018-07-17T08:24:59.400Z,30.6
2018-07-17T08:25:59.427Z,30.43
2018-07-17T08:26:59.718Z,30.79
2018-07-17T08:27:59.770Z,30.79
2018-07-17T08:28:59.821Z,31.04
2018-07-17T08:29:59.820Z,30.91
2018-07-17T08:30:59.840Z,30.55
2018-07-17T08:31:59.613Z,30.45
2018-07-17T08:32:59.907Z,30.91
2018-07-17T08:35:14.372Z,31.1
2018-07-17T08:35:59.744Z,31.32
2018-07-17T08:38:00.063Z,31.38
2018-07-17T08:38:59.838Z,30.49
2018-07-17T08:40:00.131Z,30.38
2018-07-17T08:40:59.897Z,30.54
2018-07-17T08:42:14.858Z,30.61
2018-07-17T08:43:00.226Z,30.32
2018-07-17T08:44:14.917Z,29.52
2018-07-17T08:45:00.297Z,29.49
2018-07-17T08:46:00.315Z,29.64
2018-07-17T08:48:00.378Z,29.41
2018-07-17T08:49:00.155Z,29.45
2018-07-17T08:50:00.441Z,29.85
2018-07-17T08:51:15.140Z,30.08
2018-07-17T08:52:15.174Z,30.07
2018-07-17T08:53:00.544Z,30.17
2018-07-17T08:54:00.336Z,30.35
2018-07-17T08:55:00.597Z,30.34
2018-07-17T08:56:00.375Z,30.27
2018-07-17T08:57:00.660Z,30.92
2018-07-17T08:58:00.703Z,31.57
2018-07-17T08:59:00.727Z,31.72
2018-07-17T09:00:00.503Z,31.92
2018-07-17T09:01:00.791Z,31.73
2018-07-17T09:02:00.561Z,32.29
2018-07-17T09:03:00.865Z,32.35
2018-07-17T09:04:00.627Z,31.93
2018-07-17T09:05:00.662Z,32.14
2018-07-17T09:06:01.317Z,32.33
2018-07-17T09:07:15.645Z,32.84
2018-07-17T09:08:00.756Z,33.31
2018-07-17T09:09:00.791Z,33.53
2018-07-17T09:10:00.824Z,33.71
2018-07-17T09:11:00.856Z,33.39
2018-07-17T09:12:00.901Z,33.94
2018-07-17T09:13:01.269Z,33.54
2018-07-17T09:14:01.214Z,33.28
2018-07-17T09:15:00.993Z,33.15
2018-07-17T09:16:15.941Z,32.77
2018-07-17T09:17:01.305Z,32.07
2018-07-17T09:18:01.342Z,31.61
2018-07-17T09:19:01.378Z,31.88
2018-07-17T09:20:01.424Z,32.28
2018-07-17T09:21:01.447Z,32.65
2018-07-17T09:22:16.192Z,32.77
2018-07-17T09:23:01.511Z,32.78
2018-07-17T09:24:16.217Z,32.84
2018-07-17T09:25:01.577Z,33.04
2018-07-17T09:26:01.609Z,33.31
2018-07-17T09:27:01.384Z,33.32
2018-07-17T09:28:01.670Z,33.81
2018-07-17T09:29:16.370Z,34.44
2018-07-17T09:30:01.740Z,34.49
2018-07-17T09:31:01.771Z,34.65
2018-07-17T09:32:01.805Z,34.56
2018-07-17T09:33:01.595Z,33.47
2018-07-17T09:34:01.882Z,33.21
2018-07-17T09:35:01.905Z,32.88
2018-07-17T09:36:01.943Z,33.12
2018-07-17T09:37:01.975Z,32.67
2018-07-17T09:38:01.746Z,32.93
2018-07-17T09:39:02.276Z,32.96
2018-07-17T09:41:02.103Z,32.89
2018-07-17T09:42:02.136Z,33.35
2018-07-17T09:43:02.172Z,33.82
2018-07-17T09:44:02.208Z,34.32
2018-07-17T09:45:02.235Z,34.31
2018-07-17T09:46:02.016Z,33.97
2018-07-17T09:47:02.306Z,33.6
2018-07-17T09:48:02.338Z,33.84
2018-07-17T09:49:02.367Z,33.87
2018-07-17T09:50:02.443Z,33.44
2018-07-17T09:51:02.450Z,33.18
2018-07-17T09:52:02.466Z,33.14
2018-07-17T09:53:02.508Z,33.15
2018-07-17T09:54:17.312Z,33.28
2018-07-17T09:56:02.603Z,33.98
2018-07-17T09:57:02.635Z,34.31
2018-07-17T09:58:02.670Z,34.43
2018-07-17T09:59:02.699Z,34.12
2018-07-17T10:00:02.522Z,33.71
2018-07-17T10:01:02.763Z,33.9
2018-07-17T10:02:02.538Z,34.31
2018-07-17T10:03:02.843Z,34.53
2018-07-17T10:04:02.886Z,33.57
2018-07-17T10:05:02.895Z,33.66
2018-07-17T10:06:02.671Z,34.16
2018-07-17T10:07:02.969Z,34.46
2018-07-17T10:08:02.995Z,34.78
2018-07-17T10:09:03.025Z,34.92
2018-07-17T10:10:17.726Z,34.85
2018-07-17T10:12:03.130Z,34.31
2018-07-17T10:13:03.160Z,34.02
2018-07-17T10:14:03.203Z,34.08
2018-07-17T10:15:02.710Z,33.94
2018-07-17T10:16:03.259Z,34.17
2018-07-17T10:17:03.037Z,34.81
2018-07-17T10:18:03.325Z,35.07
2018-07-17T10:19:03.099Z,34.61
2018-07-17T10:20:18.179Z,34.31
2018-07-17T10:21:18.085Z,33.86
2018-07-17T10:22:03.458Z,33.86
2018-07-17T10:23:03.497Z,33.54
2018-07-17T10:24:03.525Z,33.73
2018-07-17T10:25:03.566Z,33.66
2018-07-17T10:26:18.349Z,34.08
2018-07-17T10:27:03.620Z,34.37
2018-07-17T10:28:03.661Z,34.09
2018-07-17T10:29:03.693Z,33.94
2018-07-17T10:30:03.467Z,34.03
2018-07-17T10:31:03.768Z,34.24
2018-07-17T10:32:03.954Z,34.15
2018-07-17T10:33:03.560Z,34
2018-07-17T10:34:03.865Z,33.94
2018-07-17T10:35:03.626Z,33.9
2018-07-17T10:36:03.928Z,33.91
2018-07-17T10:37:03.692Z,33.23
2018-07-17T10:38:03.978Z,33.28
2018-07-17T10:39:03.761Z,32.97
2018-07-17T10:40:04.043Z,32.77
2018-07-17T10:41:03.821Z,32.41
2018-07-17T10:42:18.771Z,32.29
2018-07-17T10:43:03.881Z,32.19
2018-07-17T10:44:04.173Z,32.19
2018-07-17T10:45:04.211Z,32.07
2018-07-17T10:47:04.018Z,31.75
2018-07-17T10:48:04.300Z,31.72
2018-07-17T10:49:04.333Z,31.5
2018-07-17T10:50:04.381Z,31.5
2018-07-17T10:51:04.403Z,31.31
2018-07-17T10:52:04.015Z,31.26
2018-07-17T10:53:04.209Z,31.16
2018-07-17T10:54:04.511Z,30.89
2018-07-17T10:55:04.269Z,30.8
2018-07-17T10:56:04.304Z,30.91
2018-07-17T10:57:19.006Z,31.21
2018-07-17T10:58:04.363Z,31.39
2018-07-17T10:59:04.402Z,31.36
2018-07-17T11:00:19.405Z,31.29
2018-07-17T11:01:05.135Z,31.48
2018-07-17T11:02:04.760Z,31.46
2018-07-17T11:03:04.794Z,31.51
2018-07-17T11:04:19.476Z,31.36
2018-07-17T11:05:04.847Z,30.89
2018-07-17T11:06:04.626Z,30.75
2018-07-17T11:07:19.312Z,30.72
2018-07-17T11:08:04.948Z,30.16
2018-07-17T11:09:04.711Z,30.01
2018-07-17T11:10:05.015Z,30.2
2018-07-17T11:11:04.772Z,30.22
2018-07-17T11:12:05.078Z,30.04
2018-07-17T11:13:05.102Z,30.05
2018-07-17T11:14:05.123Z,30.35
2018-07-17T11:16:04.933Z,30.57
2018-07-17T11:17:05.218Z,30.16
2018-07-17T11:18:04.993Z,29.57
2018-07-17T11:19:05.281Z,29.65
2018-07-17T11:20:05.058Z,30.15
2018-07-17T11:21:05.340Z,30.35
2018-07-17T11:22:05.117Z,30.26
2018-07-17T11:23:05.414Z,30.49
2018-07-17T11:24:05.434Z,30.8
2018-07-17T11:25:05.205Z,31.04
2018-07-17T11:26:05.496Z,30.98
2018-07-17T11:27:20.200Z,30.82
2018-07-17T11:28:05.297Z,30.98
2018-07-17T11:29:20.249Z,30.82
2018-07-17T11:30:05.620Z,30.95
2018-07-17T11:31:05.648Z,31.28
2018-07-17T11:32:05.578Z,31.43
2018-07-17T11:33:05.709Z,31.25
2018-07-17T11:34:05.738Z,31.12
2018-07-17T11:35:05.512Z,30.8
2018-07-17T11:36:05.552Z,30.55
2018-07-17T11:37:05.570Z,30.7
2018-07-17T11:38:05.862Z,31.02
2018-07-17T11:39:05.897Z,31.46
2018-07-17T11:40:05.928Z,31.44
2018-07-17T11:41:05.962Z,31.5
2018-07-17T11:42:05.729Z,31.28
2018-07-17T11:43:05.755Z,31.35
2018-07-17T11:45:20.481Z,30.76
2018-07-17T11:46:05.846Z,30.84
2018-07-17T11:47:06.138Z,30.98
2018-07-17T11:48:05.921Z,31.09
2018-07-17T11:49:06.194Z,31.17
2018-07-17T11:50:05.969Z,31.43
2018-07-17T11:51:05.737Z,31.54
2018-07-17T11:52:06.036Z,31.66
2018-07-17T11:53:21.064Z,31.48
2018-07-17T11:54:06.089Z,31.51
2018-07-17T11:55:06.150Z,31.51
2018-07-17T11:57:06.179Z,31.63
2018-07-17T11:58:06.469Z,31.56
2018-07-17T11:59:07.094Z,31.47
2018-07-17T12:00:06.019Z,31.34
2018-07-17T12:01:21.221Z,31.38
2018-07-17T12:02:06.072Z,31.57
2018-07-17T12:03:06.622Z,31.5
2018-07-17T12:04:06.391Z,30.83
2018-07-17T12:05:06.431Z,30.75
2018-07-17T12:06:06.605Z,30.79
2018-07-17T12:07:06.742Z,30.6
2018-07-17T12:08:06.770Z,30.6
2018-07-17T12:09:06.541Z,30.6
2018-07-17T12:10:06.619Z,30.53
2018-07-17T12:11:06.863Z,30.53
2018-07-17T12:12:21.294Z,30.47
2018-07-17T12:13:07.503Z,30.15
2018-07-17T12:14:06.691Z,30.05
2018-07-17T12:15:06.727Z,30.35
2018-07-17T12:16:07.021Z,30.43
2018-07-17T12:17:21.711Z,30.38
2018-07-17T12:18:07.078Z,30.29
2018-07-17T12:19:07.103Z,30.37
2018-07-17T12:20:08.014Z,30.43
2018-07-17T12:21:06.904Z,30.38
2018-07-17T12:22:06.934Z,30.65
2018-07-17T12:23:06.702Z,30.83
2018-07-17T12:24:06.992Z,31.19
2018-07-17T12:25:07.283Z,31.12
2018-07-17T12:26:21.977Z,31.19
2018-07-17T12:27:07.342Z,31.46
2018-07-17T12:28:07.610Z,31.57
2018-07-17T12:29:07.403Z,31.47
2018-07-17T12:30:06.917Z,31.04
2018-07-17T12:31:07.209Z,30.92
2018-07-17T12:32:22.155Z,30.95
2018-07-17T12:33:07.267Z,30.92
2018-07-17T12:34:07.556Z,30.77
2018-07-17T12:35:22.475Z,30.84
2018-07-17T12:36:07.615Z,31.06
2018-07-17T12:37:22.058Z,31.19
2018-07-17T12:38:07.671Z,31.46
2018-07-17T12:39:07.716Z,31.73
2018-07-17T12:40:07.774Z,31.89
2018-07-17T12:41:07.767Z,32.15
2018-07-17T12:42:07.804Z,32.07
2018-07-17T12:43:07.576Z,32.25
2018-07-17T12:45:07.892Z,31.91
2018-07-17T12:46:07.917Z,31.75
2018-07-17T12:47:07.950Z,31.7
2018-07-17T12:48:07.980Z,32.14
2018-07-17T12:49:07.747Z,32.08
2018-07-17T12:50:07.970Z,32.1
2018-07-17T12:51:08.068Z,32.14
2018-07-17T12:52:08.100Z,32.04
2018-07-17T12:53:07.872Z,32.01
2018-07-17T12:54:08.152Z,32.18
2018-07-17T12:55:22.600Z,32.04
2018-07-17T12:56:07.959Z,32.03
2018-07-17T12:57:07.991Z,31.44
2018-07-17T12:58:08.286Z,30.89
2018-07-17T13:00:08.345Z,31.26
2018-07-17T13:01:08.379Z,31.41
2018-07-17T13:02:08.407Z,31.46
2018-07-17T13:03:08.176Z,31.38
2018-07-17T13:04:23.124Z,31.25
2018-07-17T13:05:07.977Z,31.07
2018-07-17T13:06:08.526Z,30.92
2018-07-17T13:07:08.295Z,30.83
2018-07-17T13:08:08.589Z,30.61
2018-07-17T13:09:08.357Z,30.55
2018-07-17T13:10:08.649Z,30.89
2018-07-17T13:11:08.424Z,31.06
2018-07-17T13:12:08.705Z,31.25
2018-07-17T13:13:08.733Z,31.17
2018-07-17T13:14:08.780Z,31.34
2018-07-17T13:15:08.797Z,31.38
2018-07-17T13:16:08.573Z,31.07
2018-07-17T13:17:08.857Z,31.13
2018-07-17T13:18:08.628Z,31.28
2018-07-17T13:19:08.916Z,31.21
2018-07-17T13:20:23.615Z,31.36
2018-07-17T13:21:08.983Z,31.48
2018-07-17T13:22:09.008Z,31.5
2018-07-17T13:23:08.781Z,31.07
2018-07-17T13:24:09.068Z,31.2
2018-07-17T13:25:09.113Z,31.09
2018-07-17T13:26:09.133Z,31.25
2018-07-17T13:27:09.159Z,31.19
2018-07-17T13:28:09.188Z,31.01
2018-07-17T13:29:09.221Z,31.25
2018-07-17T13:30:23.653Z,30.8
2018-07-17T13:31:09.279Z,30.79
2018-07-17T13:32:09.311Z,30.84